createdAt,value
2014-06-21T00:00:06.321Z,100883
2014-06-21T00:00:24.727Z,100874
2014-06-21T00:00:43.118Z,100877
2014-06-21T00:01:01.525Z,100880
2014-06-21T00:01:19.916Z,100883
2014-06-21T00:01:38.322Z,100880
2014-06-21T00:01:56.713Z,100880
2014-06-21T00:02:15.121Z,100875
2014-06-21T00:02:33.511Z,100869
2014-06-21T00:02:51.902Z,100875
2014-06-21T00:03:10.310Z,100880
2014-06-21T00:03:28.717Z,100880
2014-06-21T00:03:47.107Z,100883
2014-06-21T00:04:05.500Z,100886
2014-06-21T00:04:23.906Z,100875
2014-06-21T00:04:42.312Z,100880
2014-06-21T00:05:00.705Z,100872
2014-06-21T00:05:19.111Z,100880
2014-06-21T00:05:37.502Z,100886
2014-06-21T00:05:55.908Z,100878
2014-06-21T00:06:14.301Z,100886
2014-06-21T00:06:32.707Z,100878
2014-06-21T00:06:51.098Z,100880
2014-06-21T00:07:09.490Z,100880
2014-06-21T00:07:27.896Z,100880
2014-06-21T00:07:46.287Z,100880
2014-06-21T00:08:04.695Z,100877
2014-06-21T00:08:23.086Z,100880
2014-06-21T00:08:41.492Z,100877
2014-06-21T00:08:59.900Z,100861
2014-06-21T00:09:18.291Z,100872
2014-06-21T00:09:36.697Z,100891
2014-06-21T00:09:55.088Z,100888
2014-06-21T00:10:13.496Z,100874
2014-06-21T00:10:31.887Z,100883
2014-06-21T00:10:50.293Z,100883
2014-06-21T00:11:08.701Z,100880
2014-06-21T00:11:27.092Z,100883
2014-06-21T00:11:45.498Z,100888
2014-06-21T00:12:03.890Z,100886
2014-06-21T00:12:22.296Z,100883
2014-06-21T00:12:40.687Z,100886
2014-06-21T00:12:59.080Z,100872
2014-06-21T00:13:17.487Z,100880
2014-06-21T00:13:35.893Z,100886
2014-06-21T00:13:54.283Z,100900
2014-06-21T00:14:12.675Z,100874
2014-06-21T00:14:31.081Z,100886
2014-06-21T00:14:49.472Z,100883
2014-06-21T00:15:07.880Z,100891
2014-06-21T00:15:26.286Z,100885
2014-06-21T00:15:44.677Z,100888
2014-06-21T00:16:03.068Z,100880
2014-06-21T00:16:21.476Z,100883
2014-06-21T00:16:39.867Z,100880
2014-06-21T00:16:58.273Z,100880
2014-06-21T00:17:16.681Z,100880
2014-06-21T00:17:35.072Z,100877
2014-06-21T00:17:53.478Z,100874
2014-06-21T00:18:11.884Z,100882
2014-06-21T00:18:30.278Z,100879
2014-06-21T00:18:48.684Z,100879
2014-06-21T00:19:07.075Z,100877
2014-06-21T00:19:25.483Z,100879
2014-06-21T00:19:43.889Z,100879
2014-06-21T00:20:02.280Z,100871
2014-06-21T00:20:20.670Z,100882
2014-06-21T00:20:39.079Z,100874
2014-06-21T00:20:57.485Z,100885
2014-06-21T00:21:15.876Z,100888
2014-06-21T00:21:34.284Z,100882
2014-06-21T00:21:52.674Z,100879
2014-06-21T00:22:11.081Z,100874
2014-06-21T00:22:29.471Z,100874
2014-06-21T00:22:47.879Z,100876
2014-06-21T00:23:06.269Z,100882
2014-06-21T00:23:24.675Z,100876
2014-06-21T00:23:43.068Z,100876
2014-06-21T00:24:01.474Z,100879
2014-06-21T00:24:19.865Z,100871
2014-06-21T00:24:38.271Z,100876
2014-06-21T00:24:56.665Z,100882
2014-06-21T00:25:15.055Z,100885
2014-06-21T00:25:33.446Z,100873
2014-06-21T00:25:51.854Z,100885
2014-06-21T00:26:10.261Z,100882
2014-06-21T00:26:28.651Z,100882
2014-06-21T00:26:47.057Z,100882
2014-06-21T00:27:05.450Z,100887
2014-06-21T00:27:23.856Z,100873
2014-06-21T00:27:42.247Z,100890
2014-06-21T00:28:00.640Z,100882
2014-06-21T00:28:19.046Z,100876
2014-06-21T00:28:37.452Z,100890
2014-06-21T00:28:55.843Z,100882
2014-06-21T00:29:14.235Z,100876
2014-06-21T00:29:32.642Z,100882
2014-06-21T00:29:51.032Z,100893
2014-06-21T00:30:09.440Z,100884
2014-06-21T00:30:27.831Z,100873
2014-06-21T00:30:46.237Z,100879
2014-06-21T00:31:04.630Z,100884
2014-06-21T00:31:23.036Z,100882
2014-06-21T00:31:41.427Z,100882
2014-06-21T00:31:59.833Z,100882
2014-06-21T00:32:18.226Z,100890
2014-06-21T00:32:36.616Z,100884
2014-06-21T00:32:55.023Z,100881
2014-06-21T00:33:13.415Z,100887
2014-06-21T00:33:31.821Z,100867
2014-06-21T00:33:50.212Z,100881
2014-06-21T00:34:08.605Z,100873
2014-06-21T00:34:26.995Z,100884
2014-06-21T00:34:45.402Z,100887
2014-06-21T00:35:03.794Z,100876
2014-06-21T00:35:22.185Z,100879
2014-06-21T00:35:40.591Z,100879
2014-06-21T00:35:58.982Z,100876
2014-06-21T00:36:17.374Z,100884
2014-06-21T00:36:35.781Z,100881
2014-06-21T00:36:54.171Z,100876
2014-06-21T00:37:12.564Z,100879
2014-06-21T00:37:30.970Z,100876
2014-06-21T00:37:49.361Z,100881
2014-06-21T00:38:07.752Z,100876
2014-06-21T00:38:26.159Z,100876
2014-06-21T00:38:44.549Z,100870
2014-06-21T00:39:02.957Z,100881
2014-06-21T00:39:21.348Z,100881
2014-06-21T00:39:39.739Z,100873
2014-06-21T00:39:58.129Z,100879
2014-06-21T00:40:16.538Z,100882
2014-06-21T00:40:34.928Z,100873
2014-06-21T00:40:53.334Z,100882
2014-06-21T00:41:11.727Z,100868
2014-06-21T00:41:30.133Z,100879
2014-06-21T00:41:48.524Z,100884
2014-06-21T00:42:06.917Z,100879
2014-06-21T00:42:25.323Z,100879
2014-06-21T00:42:43.729Z,100879
2014-06-21T00:43:02.122Z,100879
2014-06-21T00:43:20.528Z,100879
2014-06-21T00:43:38.919Z,100890
2014-06-21T00:43:57.325Z,100882
2014-06-21T00:44:15.716Z,100882
2014-06-21T00:44:34.107Z,100887
2014-06-21T00:44:52.513Z,100882
2014-06-21T00:45:10.922Z,100885
2014-06-21T00:45:29.312Z,100893
2014-06-21T00:45:47.718Z,100882
2014-06-21T00:46:06.112Z,100882
2014-06-21T00:46:24.518Z,100879
2014-06-21T00:46:42.909Z,100876
2014-06-21T00:47:01.317Z,100888
2014-06-21T00:47:19.708Z,100874
2014-06-21T00:47:38.114Z,100876
2014-06-21T00:47:56.505Z,100882
2014-06-21T00:48:14.913Z,100879
2014-06-21T00:48:33.304Z,100882
2014-06-21T00:48:51.710Z,100882
2014-06-21T00:49:10.102Z,100882
2014-06-21T00:49:28.509Z,100879
2014-06-21T00:49:46.899Z,100879
2014-06-21T00:50:05.306Z,100874
2014-06-21T00:50:23.698Z,100877
2014-06-21T00:50:42.104Z,100874
2014-06-21T00:51:00.495Z,100877
2014-06-21T00:51:18.903Z,100876
2014-06-21T00:51:37.310Z,100874
2014-06-21T00:51:55.700Z,100865
2014-06-21T00:52:14.106Z,100871
2014-06-21T00:52:32.499Z,100871
2014-06-21T00:52:50.905Z,100879
2014-06-21T00:53:09.296Z,100871
2014-06-21T00:53:27.704Z,100882
2014-06-21T00:53:46.095Z,100874
2014-06-21T00:54:04.501Z,100874
2014-06-21T00:54:22.892Z,100876
2014-06-21T00:54:41.284Z,100874
2014-06-21T00:54:59.691Z,100863
2014-06-21T00:55:18.097Z,100874
2014-06-21T00:55:36.489Z,100868
2014-06-21T00:55:54.880Z,100865
2014-06-21T00:56:13.286Z,100863
2014-06-21T00:56:31.693Z,100860
2014-06-21T00:56:50.085Z,100874
2014-06-21T00:57:08.491Z,100882
2014-06-21T00:57:26.882Z,100865
2014-06-21T00:57:45.290Z,100874
2014-06-21T00:58:03.681Z,100879
2014-06-21T00:58:22.087Z,100885
2014-06-21T00:58:40.478Z,100874
2014-06-21T00:58:58.886Z,100871
2014-06-21T00:59:17.277Z,100876
2014-06-21T00:59:35.667Z,100868
2014-06-21T00:59:54.076Z,100871
2014-06-21T01:00:12.482Z,100876
2014-06-21T01:00:30.888Z,100879
2014-06-21T01:00:49.279Z,100873
2014-06-21T01:01:07.687Z,100870
2014-06-21T01:01:26.078Z,100873
2014-06-21T01:01:44.468Z,100873
2014-06-21T01:02:02.876Z,100870
2014-06-21T01:02:21.267Z,100876
2014-06-21T01:02:39.673Z,100881
2014-06-21T01:02:58.064Z,100867
2014-06-21T01:03:16.472Z,100867
2014-06-21T01:03:34.863Z,100870
2014-06-21T01:03:53.253Z,100861
2014-06-21T01:04:11.662Z,100878
2014-06-21T01:04:30.052Z,100884
2014-06-21T01:04:48.459Z,100867
2014-06-21T01:05:06.852Z,100875
2014-06-21T01:05:25.258Z,100873
2014-06-21T01:05:43.649Z,100881
2014-06-21T01:06:02.056Z,100878
2014-06-21T01:06:20.447Z,100875
2014-06-21T01:06:38.853Z,100870
2014-06-21T01:06:57.244Z,100878
2014-06-21T01:07:15.653Z,100884
2014-06-21T01:07:34.044Z,100867
2014-06-21T01:07:52.434Z,100876
2014-06-21T01:08:10.842Z,100878
2014-06-21T01:08:29.232Z,100876
2014-06-21T01:08:47.638Z,100876
2014-06-21T01:09:06.031Z,100870
2014-06-21T01:09:24.437Z,100876
2014-06-21T01:09:42.844Z,100878
2014-06-21T01:10:01.234Z,100870
2014-06-21T01:10:19.642Z,100867
2014-06-21T01:10:38.033Z,100876
2014-06-21T01:10:56.439Z,100870
2014-06-21T01:11:14.832Z,100873
2014-06-21T01:11:33.223Z,100873
2014-06-21T01:11:51.629Z,100881
2014-06-21T01:12:10.021Z,100879
2014-06-21T01:12:28.412Z,100881
2014-06-21T01:12:46.803Z,100881
2014-06-21T01:13:05.210Z,100870
2014-06-21T01:13:23.601Z,100881
2014-06-21T01:13:41.991Z,100884
2014-06-21T01:14:00.397Z,100876
2014-06-21T01:14:18.791Z,100873
2014-06-21T01:14:37.197Z,100870
2014-06-21T01:14:55.588Z,100873
2014-06-21T01:15:13.995Z,100876
2014-06-21T01:15:32.386Z,100873
2014-06-21T01:15:50.792Z,100873
2014-06-21T01:16:09.185Z,100873
2014-06-21T01:16:27.591Z,100884
2014-06-21T01:16:45.997Z,100878
2014-06-21T01:17:04.390Z,100876
2014-06-21T01:17:22.780Z,100876
2014-06-21T01:17:41.187Z,100873
2014-06-21T01:17:59.577Z,100881
2014-06-21T01:18:17.986Z,100878
2014-06-21T01:18:36.376Z,100878
2014-06-21T01:18:54.782Z,100878
2014-06-21T01:19:13.176Z,100867
2014-06-21T01:19:31.582Z,100876
2014-06-21T01:19:49.973Z,100876
2014-06-21T01:20:08.380Z,100876
2014-06-21T01:20:26.771Z,100873
2014-06-21T01:20:45.177Z,100876
2014-06-21T01:21:03.568Z,100876
2014-06-21T01:21:21.976Z,100876
2014-06-21T01:21:40.367Z,100873
2014-06-21T01:21:58.773Z,100870
2014-06-21T01:22:17.165Z,100878
2014-06-21T01:22:35.572Z,100876
2014-06-21T01:22:53.962Z,100876
2014-06-21T01:23:12.369Z,100876
2014-06-21T01:23:30.761Z,100870
2014-06-21T01:23:49.167Z,100876
2014-06-21T01:24:07.558Z,100876
2014-06-21T01:24:25.966Z,100870
2014-06-21T01:24:44.373Z,100876
2014-06-21T01:25:02.763Z,100867
2014-06-21T01:25:21.169Z,100867
2014-06-21T01:25:39.562Z,100873
2014-06-21T01:25:57.968Z,100873
2014-06-21T01:26:16.359Z,100870
2014-06-21T01:26:34.767Z,100875
2014-06-21T01:26:53.158Z,100867
2014-06-21T01:27:11.564Z,100858
2014-06-21T01:27:29.955Z,100881
2014-06-21T01:27:48.363Z,100875
2014-06-21T01:28:06.754Z,100870
2014-06-21T01:28:25.160Z,100875
2014-06-21T01:28:43.553Z,100875
2014-06-21T01:29:01.960Z,100881
2014-06-21T01:29:20.350Z,100872
2014-06-21T01:29:38.757Z,100889
2014-06-21T01:29:57.148Z,100875
2014-06-21T01:30:15.554Z,100875
2014-06-21T01:30:33.945Z,100878
2014-06-21T01:30:52.339Z,100872
2014-06-21T01:31:10.745Z,100875
2014-06-21T01:31:29.151Z,100884
2014-06-21T01:31:47.542Z,100878
2014-06-21T01:32:05.950Z,100870
2014-06-21T01:32:24.341Z,100870
2014-06-21T01:32:42.747Z,100872
2014-06-21T01:33:01.140Z,100878
2014-06-21T01:33:19.546Z,100881
2014-06-21T01:33:37.936Z,100872
2014-06-21T01:33:56.343Z,100881
2014-06-21T01:34:14.735Z,100889
2014-06-21T01:34:33.142Z,100873
2014-06-21T01:34:51.532Z,100875
2014-06-21T01:35:09.940Z,100884
2014-06-21T01:35:28.331Z,100873
2014-06-21T01:35:46.722Z,100867
2014-06-21T01:36:05.130Z,100878
2014-06-21T01:36:23.521Z,100878
2014-06-21T01:36:41.927Z,100878
2014-06-21T01:37:00.317Z,100884
2014-06-21T01:37:18.726Z,100884
2014-06-21T01:37:37.116Z,100873
2014-06-21T01:37:55.507Z,100878
2014-06-21T01:38:13.915Z,100878
2014-06-21T01:38:32.321Z,100873
2014-06-21T01:38:50.712Z,100881
2014-06-21T01:39:09.104Z,100870
2014-06-21T01:39:27.510Z,100867
2014-06-21T01:39:45.901Z,100872
2014-06-21T01:40:04.309Z,100875
2014-06-21T01:40:22.715Z,100872
2014-06-21T01:40:41.106Z,100881
2014-06-21T01:40:59.496Z,100878
2014-06-21T01:41:17.905Z,100881
2014-06-21T01:41:36.295Z,100881
2014-06-21T01:41:54.701Z,100884
2014-06-21T01:42:13.094Z,100889
2014-06-21T01:42:31.500Z,100884
2014-06-21T01:42:49.891Z,100884
2014-06-21T01:43:08.284Z,100881
2014-06-21T01:43:26.690Z,100884
2014-06-21T01:43:45.080Z,100881
2014-06-21T01:44:03.487Z,100892
2014-06-21T01:44:21.879Z,100875
2014-06-21T01:44:40.286Z,100870
2014-06-21T01:44:58.676Z,100870
2014-06-21T01:45:17.069Z,100872
2014-06-21T01:45:35.475Z,100878
2014-06-21T01:45:53.866Z,100884
2014-06-21T01:46:12.274Z,100884
2014-06-21T01:46:30.680Z,100881
2014-06-21T01:46:49.071Z,100875
2014-06-21T01:47:07.463Z,100875
2014-06-21T01:47:25.870Z,100889
2014-06-21T01:47:44.260Z,100884
2014-06-21T01:48:02.667Z,100886
2014-06-21T01:48:21.059Z,100872
2014-06-21T01:48:39.465Z,100875
2014-06-21T01:48:57.856Z,100875
2014-06-21T01:49:16.264Z,100884
2014-06-21T01:49:34.655Z,100892
2014-06-21T01:49:53.061Z,100881
2014-06-21T01:50:11.454Z,100881
2014-06-21T01:50:29.860Z,100892
2014-06-21T01:50:48.251Z,100881
2014-06-21T01:51:06.659Z,100884
2014-06-21T01:51:25.050Z,100881
2014-06-21T01:51:43.456Z,100872
2014-06-21T01:52:01.846Z,100878
2014-06-21T01:52:20.254Z,100875
2014-06-21T01:52:38.644Z,100881
2014-06-21T01:52:57.051Z,100884
2014-06-21T01:53:15.443Z,100872
2014-06-21T01:53:33.849Z,100872
2014-06-21T01:53:52.256Z,100878
2014-06-21T01:54:10.648Z,100872
2014-06-21T01:54:29.055Z,100870
2014-06-21T01:54:47.461Z,100870
2014-06-21T01:55:05.853Z,100872
2014-06-21T01:55:24.275Z,100883
2014-06-21T01:55:42.666Z,100883
2014-06-21T01:56:01.072Z,100878
2014-06-21T01:56:19.465Z,100880
2014-06-21T01:56:37.871Z,100880
2014-06-21T01:56:56.277Z,100877
2014-06-21T01:57:14.686Z,100877
2014-06-21T01:57:33.076Z,100883
2014-06-21T01:57:51.482Z,100874
2014-06-21T01:58:09.891Z,100885
2014-06-21T01:58:28.281Z,100871
2014-06-21T01:58:46.688Z,100880
2014-06-21T01:59:05.096Z,100871
2014-06-21T01:59:23.486Z,100871
2014-06-21T01:59:41.893Z,100879
2014-06-21T02:00:00.299Z,100868
2014-06-21T02:00:18.707Z,100862
2014-06-21T02:00:37.098Z,100874
2014-06-21T02:00:55.504Z,100879
2014-06-21T02:01:13.912Z,100873
2014-06-21T02:01:32.319Z,100882
2014-06-21T02:01:50.709Z,100879
2014-06-21T02:02:09.117Z,100871
2014-06-21T02:02:27.524Z,100879
2014-06-21T02:02:45.914Z,100873
2014-06-21T02:03:04.321Z,100879
2014-06-21T02:03:22.712Z,100882
2014-06-21T02:03:41.118Z,100871
2014-06-21T02:03:59.525Z,100879
2014-06-21T02:04:17.933Z,100868
2014-06-21T02:04:36.324Z,100876
2014-06-21T02:04:54.730Z,100865
2014-06-21T02:05:13.122Z,100874
2014-06-21T02:05:31.529Z,100879
2014-06-21T02:05:49.919Z,100871
2014-06-21T02:06:08.328Z,100880
2014-06-21T02:06:26.718Z,100888
2014-06-21T02:06:45.124Z,100877
2014-06-21T02:07:03.531Z,100877
2014-06-21T02:07:21.939Z,100869
2014-06-21T02:07:40.330Z,100883
2014-06-21T02:07:58.736Z,100874
2014-06-21T02:08:17.145Z,100877
2014-06-21T02:08:35.536Z,100883
2014-06-21T02:08:53.942Z,100880
2014-06-21T02:09:12.334Z,100869
2014-06-21T02:09:30.740Z,100869
2014-06-21T02:09:49.146Z,100866
2014-06-21T02:10:07.537Z,100872
2014-06-21T02:10:25.945Z,100874
2014-06-21T02:10:44.351Z,100872
2014-06-21T02:11:02.742Z,100869
2014-06-21T02:11:21.150Z,100872
2014-06-21T02:11:39.541Z,100874
2014-06-21T02:11:57.947Z,100863
2014-06-21T02:12:16.338Z,100869
2014-06-21T02:12:34.747Z,100877
2014-06-21T02:12:53.153Z,100872
2014-06-21T02:13:11.575Z,100875
2014-06-21T02:13:29.968Z,100875
2014-06-21T02:13:48.374Z,100891
2014-06-21T02:14:06.764Z,100880
2014-06-21T02:14:25.171Z,100866
2014-06-21T02:14:43.563Z,100869
2014-06-21T02:15:01.970Z,100875
2014-06-21T02:15:20.360Z,100880
2014-06-21T02:15:38.768Z,100875
2014-06-21T02:15:57.175Z,100872
2014-06-21T02:16:15.581Z,100872
2014-06-21T02:16:33.987Z,100883
2014-06-21T02:16:52.380Z,100880
2014-06-21T02:17:10.786Z,100878
2014-06-21T02:17:29.192Z,100867
2014-06-21T02:17:47.601Z,100875
2014-06-21T02:18:06.007Z,100875
2014-06-21T02:18:24.413Z,100858
2014-06-21T02:18:42.819Z,100875
2014-06-21T02:19:01.227Z,100869
2014-06-21T02:19:19.633Z,100875
2014-06-21T02:19:38.023Z,100869
2014-06-21T02:19:56.433Z,100866
2014-06-21T02:20:14.823Z,100875
2014-06-21T02:20:33.230Z,100869
2014-06-21T02:20:51.636Z,100875
2014-06-21T02:21:10.044Z,100869
2014-06-21T02:21:28.450Z,100861
2014-06-21T02:21:46.841Z,100869
2014-06-21T02:22:05.249Z,100874
2014-06-21T02:22:23.655Z,100860
2014-06-21T02:22:42.062Z,100874
2014-06-21T02:23:00.452Z,100869
2014-06-21T02:23:18.861Z,100866
2014-06-21T02:23:37.267Z,100866
2014-06-21T02:23:55.673Z,100871
2014-06-21T02:24:14.066Z,100868
2014-06-21T02:24:32.472Z,100868
2014-06-21T02:24:50.878Z,100865
2014-06-21T02:25:09.286Z,100865
2014-06-21T02:25:27.693Z,100871
2014-06-21T02:25:46.099Z,100862
2014-06-21T02:26:04.490Z,100859
2014-06-21T02:26:22.898Z,100859
2014-06-21T02:26:41.304Z,100859
2014-06-21T02:26:59.710Z,100856
2014-06-21T02:27:18.103Z,100862
2014-06-21T02:27:36.509Z,100865
2014-06-21T02:27:54.915Z,100856
2014-06-21T02:28:13.324Z,100856
2014-06-21T02:28:31.714Z,100853
2014-06-21T02:28:50.136Z,100867
2014-06-21T02:29:08.528Z,100862
2014-06-21T02:29:26.934Z,100853
2014-06-21T02:29:45.340Z,100853
2014-06-21T02:30:03.747Z,100864
2014-06-21T02:30:22.155Z,100864
2014-06-21T02:30:40.561Z,100862
2014-06-21T02:30:58.952Z,100867
2014-06-21T02:31:17.360Z,100867
2014-06-21T02:31:35.766Z,100864
2014-06-21T02:31:54.172Z,100867
2014-06-21T02:32:12.581Z,100859
2014-06-21T02:32:30.987Z,100859
2014-06-21T02:32:49.378Z,100859
2014-06-21T02:33:07.787Z,100859
2014-06-21T02:33:26.193Z,100853
2014-06-21T02:33:44.599Z,100859
2014-06-21T02:34:03.006Z,100861
2014-06-21T02:34:21.398Z,100870
2014-06-21T02:34:39.804Z,100853
2014-06-21T02:34:58.211Z,100861
2014-06-21T02:35:16.618Z,100861
2014-06-21T02:35:35.024Z,100856
2014-06-21T02:35:53.415Z,100853
2014-06-21T02:36:11.823Z,100861
2014-06-21T02:36:30.229Z,100861
2014-06-21T02:36:48.636Z,100870
2014-06-21T02:37:07.044Z,100861
2014-06-21T02:37:25.450Z,100864
2014-06-21T02:37:43.856Z,100870
2014-06-21T02:38:02.247Z,100867
2014-06-21T02:38:20.655Z,100859
2014-06-21T02:38:39.061Z,100870
2014-06-21T02:38:57.452Z,100867
2014-06-21T02:39:15.860Z,100867
2014-06-21T02:39:34.267Z,100875
2014-06-21T02:39:52.673Z,100870
2014-06-21T02:40:11.081Z,100864
2014-06-21T02:40:29.487Z,100856
2014-06-21T02:40:47.894Z,100862
2014-06-21T02:41:06.286Z,100864
2014-06-21T02:41:24.692Z,100848
2014-06-21T02:41:43.099Z,100862
2014-06-21T02:42:01.489Z,100865
2014-06-21T02:42:19.912Z,100873
2014-06-21T02:42:38.318Z,100856
2014-06-21T02:42:56.709Z,100865
2014-06-21T02:43:15.117Z,100862
2014-06-21T02:43:33.524Z,100859
2014-06-21T02:43:51.930Z,100868
2014-06-21T02:44:10.339Z,100862
2014-06-21T02:44:28.745Z,100865
2014-06-21T02:44:47.152Z,100877
2014-06-21T02:45:05.542Z,100863
2014-06-21T02:45:23.949Z,100866
2014-06-21T02:45:42.356Z,100871
2014-06-21T02:46:00.762Z,100857
2014-06-21T02:46:19.156Z,100857
2014-06-21T02:46:37.562Z,100860
2014-06-21T02:46:55.968Z,100863
2014-06-21T02:47:14.375Z,100858
2014-06-21T02:47:32.782Z,100860
2014-06-21T02:47:51.172Z,100874
2014-06-21T02:48:09.578Z,100869
2014-06-21T02:48:27.988Z,100863
2014-06-21T02:48:46.394Z,100863
2014-06-21T02:49:04.800Z,100861
2014-06-21T02:49:23.208Z,100872
2014-06-21T02:49:41.599Z,100869
2014-06-21T02:50:00.005Z,100866
2014-06-21T02:50:18.412Z,100861
2014-06-21T02:50:36.820Z,100866
2014-06-21T02:50:55.226Z,100861
2014-06-21T02:51:13.617Z,100869
2014-06-21T02:51:32.041Z,100867
2014-06-21T02:51:50.447Z,100861
2014-06-21T02:52:08.853Z,100855
2014-06-21T02:52:27.244Z,100858
2014-06-21T02:52:45.651Z,100869
2014-06-21T02:53:04.057Z,100878
2014-06-21T02:53:22.463Z,100858
2014-06-21T02:53:40.873Z,100875
2014-06-21T02:53:59.263Z,100870
2014-06-21T02:54:17.670Z,100858
2014-06-21T02:54:36.076Z,100870
2014-06-21T02:54:54.484Z,100867
2014-06-21T02:55:12.890Z,100864
2014-06-21T02:55:31.281Z,100867
2014-06-21T02:55:49.689Z,100861
2014-06-21T02:56:08.095Z,100867
2014-06-21T02:56:26.502Z,100872
2014-06-21T02:56:44.908Z,100867
2014-06-21T02:57:03.316Z,100867
2014-06-21T02:57:21.707Z,100866
2014-06-21T02:57:40.113Z,100875
2014-06-21T02:57:58.521Z,100875
2014-06-21T02:58:16.928Z,100875
2014-06-21T02:58:35.318Z,100872
2014-06-21T02:58:53.724Z,100880
2014-06-21T02:59:12.148Z,100874
2014-06-21T02:59:30.539Z,100872
2014-06-21T02:59:48.945Z,100874
2014-06-21T03:00:07.338Z,100866
2014-06-21T03:00:25.744Z,100863
2014-06-21T03:00:44.150Z,100874
2014-06-21T03:01:02.557Z,100866
2014-06-21T03:01:20.966Z,100877
2014-06-21T03:01:39.372Z,100877
2014-06-21T03:01:57.778Z,100874
2014-06-21T03:02:16.186Z,100880
2014-06-21T03:02:34.592Z,100880
2014-06-21T03:02:52.982Z,100875
2014-06-21T03:03:11.391Z,100869
2014-06-21T03:03:29.797Z,100875
2014-06-21T03:03:48.203Z,100872
2014-06-21T03:04:06.609Z,100869
2014-06-21T03:04:25.018Z,100883
2014-06-21T03:04:43.424Z,100872
2014-06-21T03:05:01.815Z,100872
2014-06-21T03:05:20.223Z,100881
2014-06-21T03:05:38.629Z,100872
2014-06-21T03:05:57.035Z,100872
2014-06-21T03:06:15.444Z,100884
2014-06-21T03:06:33.850Z,100872
2014-06-21T03:06:52.256Z,100884
2014-06-21T03:07:10.648Z,100878
2014-06-21T03:07:29.054Z,100878
2014-06-21T03:07:47.460Z,100889
2014-06-21T03:08:05.866Z,100881
2014-06-21T03:08:24.275Z,100876
2014-06-21T03:08:42.681Z,100887
2014-06-21T03:09:01.072Z,100867
2014-06-21T03:09:19.480Z,100870
2014-06-21T03:09:37.886Z,100876
2014-06-21T03:09:56.292Z,100876
2014-06-21T03:10:14.701Z,100878
2014-06-21T03:10:33.107Z,100881
2014-06-21T03:10:51.513Z,100881
2014-06-21T03:11:09.906Z,100875
2014-06-21T03:11:28.312Z,100873
2014-06-21T03:11:46.718Z,100881
2014-06-21T03:12:05.124Z,100875
2014-06-21T03:12:23.533Z,100875
2014-06-21T03:12:41.923Z,100875
2014-06-21T03:13:00.330Z,100884
2014-06-21T03:13:18.738Z,100884
2014-06-21T03:13:37.144Z,100884
2014-06-21T03:13:55.550Z,100878
2014-06-21T03:14:13.943Z,100878
2014-06-21T03:14:32.349Z,100892
2014-06-21T03:14:50.755Z,100884
2014-06-21T03:15:09.164Z,100884
2014-06-21T03:15:27.554Z,100883
2014-06-21T03:15:45.961Z,100878
2014-06-21T03:16:04.367Z,100883
2014-06-21T03:16:22.775Z,100886
2014-06-21T03:16:41.181Z,100889
2014-06-21T03:16:59.572Z,100883
2014-06-21T03:17:17.980Z,100883
2014-06-21T03:17:36.386Z,100875
2014-06-21T03:17:54.793Z,100892
2014-06-21T03:18:13.201Z,100878
2014-06-21T03:18:31.592Z,100886
2014-06-21T03:18:49.998Z,100889
2014-06-21T03:19:08.406Z,100889
2014-06-21T03:19:26.797Z,100886
2014-06-21T03:19:45.203Z,100897
2014-06-21T03:20:03.609Z,100881
2014-06-21T03:20:22.017Z,100889
2014-06-21T03:20:40.424Z,100886
2014-06-21T03:20:58.830Z,100889
2014-06-21T03:21:17.223Z,100881
2014-06-21T03:21:35.629Z,100886
2014-06-21T03:21:54.035Z,100892
2014-06-21T03:22:12.443Z,100889
2014-06-21T03:22:30.834Z,100886
2014-06-21T03:22:49.240Z,100883
2014-06-21T03:23:07.646Z,100881
2014-06-21T03:23:26.054Z,100897
2014-06-21T03:23:44.460Z,100886
2014-06-21T03:24:02.851Z,100883
2014-06-21T03:24:21.259Z,100883
2014-06-21T03:24:39.665Z,100881
2014-06-21T03:24:58.071Z,100883
2014-06-21T03:25:16.480Z,100892
2014-06-21T03:25:34.886Z,100889
2014-06-21T03:25:53.276Z,100883
2014-06-21T03:26:11.685Z,100886
2014-06-21T03:26:30.091Z,100884
2014-06-21T03:26:48.513Z,100881
2014-06-21T03:27:06.903Z,100895
2014-06-21T03:27:25.312Z,100881
2014-06-21T03:27:43.718Z,100870
2014-06-21T03:28:02.124Z,100884
2014-06-21T03:28:20.517Z,100878
2014-06-21T03:28:38.923Z,100884
2014-06-21T03:28:57.329Z,100884
2014-06-21T03:29:15.737Z,100887
2014-06-21T03:29:34.143Z,100887
2014-06-21T03:29:52.549Z,100887
2014-06-21T03:30:10.942Z,100884
2014-06-21T03:30:29.348Z,100870
2014-06-21T03:30:47.754Z,100893
2014-06-21T03:31:06.160Z,100884
2014-06-21T03:31:24.554Z,100884
2014-06-21T03:31:42.960Z,100890
2014-06-21T03:32:01.367Z,100893
2014-06-21T03:32:19.775Z,100882
2014-06-21T03:32:38.165Z,100890
2014-06-21T03:32:56.587Z,100882
2014-06-21T03:33:14.979Z,100885
2014-06-21T03:33:33.385Z,100879
2014-06-21T03:33:51.791Z,100885
2014-06-21T03:34:10.200Z,100890
2014-06-21T03:34:28.590Z,100891
2014-06-21T03:34:46.997Z,100885
2014-06-21T03:35:05.403Z,100885
2014-06-21T03:35:23.811Z,100888
2014-06-21T03:35:42.217Z,100896
2014-06-21T03:36:00.608Z,100885
2014-06-21T03:36:19.016Z,100882
2014-06-21T03:36:37.422Z,100882
2014-06-21T03:36:55.829Z,100888
2014-06-21T03:37:14.222Z,100891
2014-06-21T03:37:32.629Z,100885
2014-06-21T03:37:51.035Z,100891
2014-06-21T03:38:09.443Z,100905
2014-06-21T03:38:27.849Z,100894
2014-06-21T03:38:46.240Z,100888
2014-06-21T03:39:04.662Z,100885
2014-06-21T03:39:23.053Z,100897
2014-06-21T03:39:41.460Z,100900
2014-06-21T03:39:59.866Z,100894
2014-06-21T03:40:18.274Z,100891
2014-06-21T03:40:36.665Z,100894
2014-06-21T03:40:55.071Z,100897
2014-06-21T03:41:13.479Z,100900
2014-06-21T03:41:31.886Z,100905
2014-06-21T03:41:50.292Z,100908
2014-06-21T03:42:08.700Z,100894
2014-06-21T03:42:27.106Z,100894
2014-06-21T03:42:45.497Z,100897
2014-06-21T03:43:03.903Z,100899
2014-06-21T03:43:22.311Z,100885
2014-06-21T03:43:40.718Z,100897
2014-06-21T03:43:59.108Z,100891
2014-06-21T03:44:17.517Z,100891
2014-06-21T03:44:35.923Z,100902
2014-06-21T03:44:54.329Z,100891
2014-06-21T03:45:12.737Z,100899
2014-06-21T03:45:31.144Z,100905
2014-06-21T03:45:49.534Z,100897
2014-06-21T03:46:07.940Z,100911
2014-06-21T03:46:26.349Z,100897
2014-06-21T03:46:44.755Z,100894
2014-06-21T03:47:03.161Z,100891
2014-06-21T03:47:21.568Z,100891
2014-06-21T03:47:39.959Z,100899
2014-06-21T03:47:58.365Z,100891
2014-06-21T03:48:16.758Z,100891
2014-06-21T03:48:35.164Z,100897
2014-06-21T03:48:53.570Z,100897
2014-06-21T03:49:11.980Z,100888
2014-06-21T03:49:30.386Z,100891